Time;durP1;ratioP1;P1;durP2;ratioP2;P2;SDS_P1;SDS_P2;PMS_P1;PMS_P2;Temp;Humidity;BMP_temperature;BMP_pressure;BME280_temperature;BME280_humidity;BME280_pressure;Samples;Min_cycle;Max_cycle;Signal;HPM_P1;HPM_P2
2022/11/14 00:00:57;;;;;;;16.33;11.17;;;2.60;99.90;;;;;;5035002;28;20261;-88
2022/11/14 00:03:42;;;;;;;19.07;13.33;;;2.60;99.90;;;;;;5033298;28;20193;-88
2022/11/14 00:06:26;;;;;;;21.30;13.27;;;2.60;99.90;;;;;;5015202;28;20186;-88
2022/11/14 00:09:10;;;;;;;25.53;14.73;;;2.60;99.90;;;;;;5015410;28;20675;-88
2022/11/14 00:11:55;;;;;;;31.43;14.90;;;2.60;99.90;;;;;;5026577;28;20213;-88
2022/11/14 00:14:39;;;;;;;25.90;13.37;;;2.70;99.90;;;;;;5035041;28;20252;-88
2022/11/14 00:17:24;;;;;;;19.70;11.83;;;2.70;99.90;;;;;;5034528;28;20177;-88
2022/11/14 00:20:10;;;;;;;16.23;11.73;;;2.70;99.90;;;;;;5034849;28;20208;-88
2022/11/14 00:22:56;;;;;;;18.83;11.53;;;2.60;99.90;;;;;;5034943;28;20206;-88
2022/11/14 00:25:40;;;;;;;23.00;11.27;;;2.50;99.90;;;;;;5034483;28;20243;-88
2022/11/14 00:28:25;;;;;;;18.80;11.17;;;2.50;99.90;;;;;;5034595;28;20194;-88
2022/11/14 00:31:10;;;;;;;19.67;11.87;;;2.40;99.90;;;;;;5034713;28;20189;-88
2022/11/14 00:33:55;;;;;;;14.10;10.57;;;2.30;99.90;;;;;;5034198;28;20217;-88
2022/11/14 00:36:39;;;;;;;16.57;10.37;;;2.40;99.90;;;;;;5014486;28;20191;-89
2022/11/14 00:39:24;;;;;;;17.50;12.47;;;2.30;99.90;;;;;;5014688;28;20193;-88
2022/11/14 00:42:08;;;;;;;15.27;9.97;;;2.30;99.90;;;;;;5014350;28;20198;-88
2022/11/14 00:44:53;;;;;;;16.63;10.33;;;2.30;99.90;;;;;;5027748;28;20221;-88
2022/11/14 00:47:38;;;;;;;15.17;10.47;;;2.30;99.90;;;;;;5014561;28;20182;-88
2022/11/14 00:50:22;;;;;;;14.87;10.00;;;2.30;99.90;;;;;;5014313;28;20218;-88
2022/11/14 00:53:07;;;;;;;16.37;10.70;;;2.30;99.90;;;;;;5014500;28;20342;-88
2022/11/14 00:55:51;;;;;;;22.00;11.27;;;2.30;99.90;;;;;;5015382;28;20389;-88
2022/11/14 00:58:36;;;;;;;23.20;11.23;;;2.30;99.90;;;;;;5014186;28;20175;-87
2022/11/14 01:01:20;;;;;;;15.80;10.30;;;2.20;99.90;;;;;;5014083;28;20218;-88
2022/11/14 01:04:05;;;;;;;16.57;10.00;;;2.20;99.90;;;;;;5015091;28;20210;-88
2022/11/14 01:06:49;;;;;;;21.27;10.50;;;2.10;99.90;;;;;;5047997;28;20197;-88
2022/11/14 01:09:34;;;;;;;22.30;11.03;;;2.00;99.90;;;;;;5047764;28;20169;-88
2022/11/14 01:12:19;;;;;;;15.47;10.50;;;1.90;99.90;;;;;;5048176;28;20177;-88
2022/11/14 01:15:04;;;;;;;28.03;12.00;;;1.90;99.90;;;;;;5047827;28;20224;-87
2022/11/14 01:17:48;;;;;;;31.23;12.03;;;1.90;99.90;;;;;;5047601;28;20185;-88
2022/11/14 01:20:32;;;;;;;24.40;13.47;;;1.90;99.90;;;;;;5047499;28;20229;-88
2022/11/14 01:23:17;;;;;;;23.37;13.97;;;2.00;99.90;;;;;;5033912;28;20269;-88
2022/11/14 01:26:04;;;;;;;27.07;13.47;;;2.00;99.90;;;;;;5033858;28;20193;-88
2022/11/14 01:28:48;;;;;;;21.17;12.47;;;2.10;99.90;;;;;;5023451;28;20812;-88
2022/11/14 01:31:33;;;;;;;21.63;13.20;;;2.10;99.90;;;;;;5033347;28;20189;-88
2022/11/14 01:34:17;;;;;;;15.20;10.80;;;2.20;99.90;;;;;;5033449;28;20213;-88
2022/11/14 01:37:02;;;;;;;20.60;12.77;;;2.20;99.90;;;;;;5047400;28;20239;-88
2022/11/14 01:39:47;;;;;;;33.83;12.43;;;2.20;99.90;;;;;;5047442;28;20189;-88
2022/11/14 01:42:31;;;;;;;33.10;13.23;;;2.20;99.90;;;;;;5047106;28;20245;-88
2022/11/14 01:45:40;;;;;;;37.00;12.70;;;2.20;99.90;;;;;;5033577;28;20205;-88
2022/11/14 01:48:36;;;;;;;27.60;11.93;;;2.20;99.90;;;;;;5013354;28;20202;-88
2022/11/14 01:51:33;;;;;;;20.50;10.97;;;2.20;99.90;;;;;;5013518;28;20175;-88
2022/11/14 01:54:29;;;;;;;21.40;9.93;;;2.20;99.90;;;;;;5013288;28;20226;-88
2022/11/14 01:57:17;;;;;;;17.77;9.07;;;2.20;99.90;;;;;;5013063;28;20290;-88
2022/11/14 02:00:05;;;;;;;20.03;8.43;;;2.20;99.90;;;;;;5027042;28;20200;-88
2022/11/14 02:02:50;;;;;;;12.87;7.27;;;2.00;99.90;;;;;;5032794;28;20166;-88
2022/11/14 02:05:36;;;;;;;13.10;6.83;;;2.00;99.90;;;;;;5032846;28;20225;-88
2022/11/14 02:08:22;;;;;;;10.80;7.33;;;2.00;99.90;;;;;;5032799;28;20192;-88
2022/11/14 02:11:10;;;;;;;18.87;7.20;;;2.00;99.90;;;;;;5032560;28;20308;-87
2022/11/14 02:13:55;;;;;;;12.20;7.37;;;2.00;99.90;;;;;;5033368;28;20214;-88
2022/11/14 02:16:40;;;;;;;23.10;7.77;;;2.00;99.90;;;;;;5032535;28;20196;-88
2022/11/14 02:19:38;;;;;;;14.40;8.03;;;1.90;99.90;;;;;;5032340;28;20221;-87
2022/11/14 02:22:23;;;;;;;12.13;8.20;;;1.80;99.90;;;;;;5032462;28;20261;-88
2022/11/14 02:25:09;;;;;;;15.40;7.37;;;1.80;99.90;;;;;;5032333;28;20225;-87
2022/11/14 02:27:57;;;;;;;16.80;8.23;;;1.80;99.90;;;;;;5012539;28;20716;-88
2022/11/14 02:30:41;;;;;;;14.97;8.10;;;1.80;99.90;;;;;;5028464;28;20257;-88
2022/11/14 02:33:26;;;;;;;15.23;8.73;;;1.70;99.90;;;;;;5033218;28;20173;-88
2022/11/14 02:36:11;;;;;;;11.47;7.63;;;1.80;99.90;;;;;;5032422;28;20219;-87
2022/11/14 02:38:55;;;;;;;22.87;9.57;;;1.80;99.90;;;;;;5046335;28;20177;-88
2022/11/14 02:42:23;;;;;;;32.57;8.70;;;1.80;99.90;;;;;;5046057;28;20228;-87
2022/11/14 02:45:08;;;;;;;15.80;8.67;;;1.80;99.90;;;;;;5046052;28;20205;-87
2022/11/14 02:47:53;;;;;;;10.63;8.00;;;1.80;99.90;;;;;;5045881;28;20257;-87
2022/11/14 02:51:20;;;;;;;12.03;8.33;;;1.80;99.90;;;;;;5012199;28;20178;-87
2022/11/14 02:54:04;;;;;;;21.67;9.37;;;1.80;99.90;;;;;;5026353;28;20255;-87
2022/11/14 02:56:49;;;;;;;12.53;8.67;;;1.80;99.90;;;;;;5011959;28;20181;-87
2022/11/14 02:59:34;;;;;;;12.03;8.37;;;1.80;99.90;;;;;;5012578;28;20172;-87
2022/11/14 03:02:18;;;;;;;15.07;8.07;;;1.80;99.90;;;;;;5026011;28;20227;-87
2022/11/14 03:05:03;;;;;;;32.00;10.93;;;1.90;99.90;;;;;;5020876;28;20213;-88
2022/11/14 03:07:53;;;;;;;25.40;9.13;;;1.80;99.90;;;;;;5031245;28;20197;-88
2022/11/14 03:10:37;;;;;;;33.70;9.73;;;1.70;99.90;;;;;;5031774;28;20174;-88
2022/11/14 03:13:22;;;;;;;20.07;7.90;;;1.70;99.90;;;;;;5031762;28;20383;-87
2022/11/14 03:16:08;;;;;;;13.87;7.97;;;1.60;99.90;;;;;;5031562;28;20223;-88
2022/11/14 03:18:52;;;;;;;11.83;7.87;;;1.60;99.90;;;;;;5031377;28;20177;-88
2022/11/14 03:21:41;;;;;;;16.70;8.73;;;1.70;99.90;;;;;;5031680;28;20287;-87
2022/11/14 03:24:26;;;;;;;14.30;8.50;;;1.70;99.90;;;;;;5031472;28;20221;-87
2022/11/14 03:27:11;;;;;;;14.97;8.47;;;1.80;99.90;;;;;;5031293;28;20181;-88
2022/11/14 03:29:55;;;;;;;18.90;10.77;;;1.90;99.90;;;;;;5031479;28;20232;-87
2022/11/14 03:32:40;;;;;;;18.07;9.30;;;1.90;99.90;;;;;;5031499;28;20264;-87
2022/11/14 03:35:24;;;;;;;24.60;9.33;;;1.90;99.90;;;;;;5031405;28;20268;-88
2022/11/14 03:38:09;;;;;;;14.37;7.87;;;1.80;99.90;;;;;;5045502;28;20170;-88
2022/11/14 03:40:53;;;;;;;16.17;9.17;;;1.80;99.90;;;;;;5045286;28;20284;-88
2022/11/14 03:43:38;;;;;;;17.83;9.43;;;1.80;99.90;;;;;;5045583;28;20184;-88
2022/11/14 03:46:23;;;;;;;15.93;9.03;;;1.80;99.90;;;;;;5031587;28;20182;-88
2022/11/14 03:49:08;;;;;;;16.07;9.17;;;1.80;99.90;;;;;;5031738;28;20692;-88
2022/11/14 03:51:52;;;;;;;21.00;11.83;;;1.80;99.90;;;;;;5031486;28;20182;-88
2022/11/14 03:54:37;;;;;;;11.97;8.83;;;1.90;99.90;;;;;;5032182;28;20218;-88
2022/11/14 03:57:21;;;;;;;12.30;8.53;;;1.90;99.90;;;;;;5030942;28;20188;-88
2022/11/14 04:00:07;;;;;;;30.70;8.83;;;1.90;99.90;;;;;;5031237;28;20193;-88
2022/11/14 04:02:56;;;;;;;12.57;8.20;;;1.90;99.90;;;;;;5031509;28;20173;-88
2022/11/14 04:05:45;;;;;;;15.60;7.93;;;1.90;99.90;;;;;;5031542;28;20217;-87
2022/11/14 04:08:30;;;;;;;10.27;6.70;;;1.90;99.90;;;;;;5045498;28;20186;-88
2022/11/14 04:11:14;;;;;;;20.57;8.60;;;1.80;99.90;;;;;;5045315;28;20254;-88
2022/11/14 04:13:59;;;;;;;52.83;12.40;;;1.80;99.90;;;;;;5045192;28;20213;-87
2022/11/14 04:16:43;;;;;;;12.43;8.80;;;1.70;99.90;;;;;;5045278;28;20174;-88
2022/11/14 04:19:27;;;;;;;16.03;8.47;;;1.60;99.90;;;;;;5025613;28;20171;-88
2022/11/14 04:22:12;;;;;;;14.10;8.60;;;1.70;99.90;;;;;;5014963;28;20201;-88
2022/11/14 04:24:56;;;;;;;15.07;9.00;;;1.70;99.90;;;;;;5014829;28;20230;-88
2022/11/14 04:27:40;;;;;;;20.83;9.03;;;1.70;99.90;;;;;;5014852;28;20572;-87
2022/11/14 04:30:25;;;;;;;20.50;9.70;;;1.70;99.90;;;;;;5019762;28;20202;-88
2022/11/14 04:33:10;;;;;;;20.67;8.67;;;1.80;99.90;;;;;;5014720;28;20269;-88
2022/11/14 04:35:54;;;;;;;13.13;8.23;;;1.80;99.90;;;;;;5030555;28;20216;-88
2022/11/14 04:38:39;;;;;;;19.70;8.87;;;1.80;99.90;;;;;;5052602;28;20200;-88
2022/11/14 04:41:24;;;;;;;20.77;9.83;;;1.80;99.90;;;;;;5055477;28;20204;-89
2022/11/14 04:44:18;;;;;;;17.90;9.40;;;1.80;99.90;;;;;;5037888;28;20257;-89
2022/11/14 04:47:03;;;;;;;12.87;8.80;;;1.90;99.90;;;;;;5028280;28;20249;-89
2022/11/14 04:49:47;;;;;;;18.67;10.03;;;1.90;99.90;;;;;;5028267;28;20248;-89
2022/11/14 04:52:35;;;;;;;14.23;9.27;;;2.00;99.90;;;;;;5028300;28;20177;-89
2022/11/14 04:55:20;;;;;;;28.33;9.67;;;2.00;99.90;;;;;;5028104;28;20274;-89
2022/11/14 04:58:04;;;;;;;13.50;9.23;;;2.00;99.90;;;;;;5046607;28;20174;-89
2022/11/14 05:00:56;;;;;;;14.10;9.20;;;2.00;99.90;;;;;;5047640;28;20221;-89
2022/11/14 05:03:41;;;;;;;16.07;9.27;;;2.00;99.90;;;;;;5035338;28;20170;-89
2022/11/14 05:06:25;;;;;;;14.77;9.23;;;2.10;99.90;;;;;;5028245;28;20170;-89
2022/11/14 05:09:10;;;;;;;10.40;7.63;;;2.10;99.90;;;;;;5025435;28;20182;-89
2022/11/14 05:11:54;;;;;;;10.90;8.07;;;2.00;99.90;;;;;;5014278;28;20183;-89
2022/11/14 05:14:39;;;;;;;11.07;8.27;;;2.10;99.90;;;;;;5014603;28;20262;-89
2022/11/14 05:17:23;;;;;;;10.90;8.50;;;2.10;99.90;;;;;;5018954;28;20182;-89
2022/11/14 05:20:09;;;;;;;11.47;8.43;;;2.10;99.90;;;;;;5057546;28;20215;-89
2022/11/14 05:22:55;;;;;;;10.07;8.10;;;2.10;99.90;;;;;;5036413;28;20190;-89
2022/11/14 05:25:39;;;;;;;13.10;10.20;;;2.10;99.90;;;;;;5022889;28;20355;-89
2022/11/14 05:28:24;;;;;;;10.27;7.70;;;2.10;99.90;;;;;;5030325;28;20243;-89
2022/11/14 05:31:14;;;;;;;12.53;8.90;;;2.10;99.90;;;;;;5033655;28;20229;-89
2022/11/14 05:33:58;;;;;;;13.10;9.07;;;2.10;99.90;;;;;;5033332;28;20213;-89
2022/11/14 05:36:43;;;;;;;15.07;8.30;;;2.10;99.90;;;;;;5013618;28;20182;-89
2022/11/14 05:39:27;;;;;;;15.00;8.70;;;2.10;99.90;;;;;;5013582;28;20175;-89
2022/11/14 05:42:12;;;;;;;12.23;8.40;;;2.10;99.90;;;;;;5013629;28;20219;-89
2022/11/14 05:44:56;;;;;;;12.43;8.97;;;2.10;99.90;;;;;;5013494;28;20209;-89
2022/11/14 05:47:41;;;;;;;16.93;9.17;;;2.00;99.90;;;;;;5013300;28;20251;-89
2022/11/14 05:50:26;;;;;;;15.77;9.23;;;2.00;99.90;;;;;;5013085;28;20198;-89
2022/11/14 05:53:10;;;;;;;19.77;10.83;;;2.00;99.90;;;;;;5013580;28;20181;-90
2022/11/14 05:56:03;;;;;;;26.73;11.27;;;2.00;99.90;;;;;;5013457;28;20216;-90
2022/11/14 05:58:47;;;;;;;17.80;11.53;;;2.00;99.90;;;;;;5014462;28;20171;-89
2022/11/14 06:01:32;;;;;;;21.83;13.00;;;2.00;99.90;;;;;;5012873;28;20204;-89
2022/11/14 06:04:17;;;;;;;20.47;11.70;;;2.00;99.90;;;;;;5015399;28;20262;-89
2022/11/14 06:07:01;;;;;;;19.90;11.30;;;2.00;99.90;;;;;;5033028;28;20162;-89
2022/11/14 06:09:46;;;;;;;23.13;14.43;;;2.10;99.90;;;;;;5032794;28;20181;-89
2022/11/14 06:12:31;;;;;;;22.97;15.27;;;2.10;99.90;;;;;;5024622;28;20169;-89
2022/11/14 06:15:16;;;;;;;19.83;12.47;;;2.10;99.90;;;;;;5032684;28;20309;-89
2022/11/14 06:18:01;;;;;;;17.33;11.07;;;2.10;99.90;;;;;;5032027;28;20277;-89
2022/11/14 06:20:57;;;;;;;16.93;10.60;;;2.10;99.90;;;;;;5032644;28;20328;-89
2022/11/14 06:23:42;;;;;;;15.90;11.00;;;2.10;99.90;;;;;;5032647;28;20196;-89
2022/11/14 06:26:31;;;;;;;15.90;10.73;;;2.10;99.90;;;;;;5033081;28;20255;-89
2022/11/14 06:29:16;;;;;;;17.00;10.83;;;2.20;99.90;;;;;;5033028;28;20209;-87
2022/11/14 06:32:00;;;;;;;15.77;10.60;;;2.20;99.90;;;;;;5032584;28;20689;-87
2022/11/14 06:34:44;;;;;;;28.57;19.47;;;2.20;99.90;;;;;;5032448;28;20272;-87
2022/11/14 06:37:29;;;;;;;18.70;12.97;;;2.20;99.90;;;;;;5046333;28;20174;-87
2022/11/14 06:40:13;;;;;;;15.67;10.93;;;2.20;99.90;;;;;;5045897;28;20189;-87
2022/11/14 06:42:58;;;;;;;19.27;12.60;;;2.20;99.90;;;;;;5040109;28;20221;-87
2022/11/14 06:45:42;;;;;;;16.77;12.07;;;2.20;99.90;;;;;;5032556;28;20210;-87
2022/11/14 06:48:27;;;;;;;16.97;10.90;;;2.20;99.90;;;;;;5032055;28;20177;-87
2022/11/14 06:51:13;;;;;;;14.97;10.73;;;2.30;99.90;;;;;;5031858;28;20193;-87
2022/11/14 06:53:58;;;;;;;16.17;11.23;;;2.30;99.90;;;;;;5031991;28;20288;-87
2022/11/14 06:56:42;;;;;;;14.87;10.77;;;2.40;99.90;;;;;;5032027;28;20169;-87
2022/11/14 06:59:27;;;;;;;14.77;11.10;;;2.40;99.90;;;;;;5031969;28;20182;-87
2022/11/14 07:02:12;;;;;;;29.70;20.63;;;2.50;99.90;;;;;;5031880;28;20261;-87
2022/11/14 07:04:57;;;;;;;21.90;16.23;;;2.50;99.90;;;;;;5031463;28;20241;-87
2022/11/14 07:07:41;;;;;;;15.97;12.27;;;2.50;99.90;;;;;;5045701;28;20180;-87
2022/11/14 07:10:26;;;;;;;70.87;34.63;;;2.50;99.90;;;;;;5045784;28;20166;-87
2022/11/14 07:13:11;;;;;;;55.50;25.70;;;2.60;99.90;;;;;;5045855;28;20665;-86
2022/11/14 07:15:56;;;;;;;18.20;11.30;;;2.60;99.90;;;;;;5015391;28;20226;-87
2022/11/14 07:18:40;;;;;;;18.37;12.10;;;2.70;99.90;;;;;;5039788;28;20336;-87
2022/11/14 07:25:12;;;;;;;15.27;11.00;;;2.70;99.90;;;;;;5032913;28;20198;-87
2022/11/14 07:27:57;;;;;;;14.87;10.87;;;2.70;99.90;;;;;;5032581;28;20250;-87
2022/11/14 07:30:41;;;;;;;15.87;10.97;;;2.70;99.90;;;;;;5016540;28;20186;-87
2022/11/14 07:33:26;;;;;;;16.93;10.93;;;2.70;99.90;;;;;;5012204;28;20574;-87
2022/11/14 07:36:12;;;;;;;15.00;11.10;;;2.80;99.90;;;;;;5012001;28;20166;-87
2022/11/14 07:38:57;;;;;;;16.33;11.47;;;2.80;99.90;;;;;;5011761;28;20217;-87
2022/11/14 07:41:41;;;;;;;28.10;17.57;;;2.80;99.90;;;;;;5011767;28;20213;-87
2022/11/14 07:44:26;;;;;;;22.13;14.47;;;2.80;99.90;;;;;;5020195;28;20205;-87
2022/11/14 07:47:10;;;;;;;19.33;12.27;;;2.90;99.90;;;;;;5031693;28;20178;-87
2022/11/14 07:49:55;;;;;;;18.53;12.77;;;2.80;99.90;;;;;;5031419;28;20190;-87
2022/11/14 07:52:41;;;;;;;17.87;11.80;;;2.90;99.90;;;;;;5031764;28;20171;-88
2022/11/14 07:55:25;;;;;;;17.07;12.43;;;2.90;99.90;;;;;;5033195;28;20209;-87
2022/11/14 07:58:10;;;;;;;16.67;11.70;;;3.00;99.90;;;;;;5036113;28;20177;-87
2022/11/14 08:00:55;;;;;;;16.77;12.00;;;3.00;99.90;;;;;;5033182;28;20686;-87
2022/11/14 08:03:39;;;;;;;17.23;11.57;;;3.00;99.90;;;;;;5034715;28;20296;-86
2022/11/14 08:06:25;;;;;;;16.60;12.13;;;3.10;99.90;;;;;;5015069;28;20702;-87
2022/11/14 08:09:09;;;;;;;15.67;11.63;;;3.10;99.90;;;;;;5015334;28;20214;-87
2022/11/14 08:11:54;;;;;;;15.93;11.07;;;3.10;99.90;;;;;;5015246;28;20190;-88
2022/11/14 08:14:38;;;;;;;16.20;11.17;;;3.10;99.90;;;;;;5015198;28;20245;-88
2022/11/14 08:17:23;;;;;;;15.77;11.60;;;3.20;99.90;;;;;;5019874;28;20826;-88
2022/11/14 08:20:08;;;;;;;15.47;11.03;;;3.20;99.90;;;;;;5034969;28;20182;-87
2022/11/14 08:23:05;;;;;;;14.60;10.97;;;3.20;99.90;;;;;;5033030;28;20214;-87
2022/11/14 08:25:51;;;;;;;12.80;10.30;;;3.10;99.90;;;;;;5034092;28;20209;-87
2022/11/14 08:28:36;;;;;;;14.60;11.00;;;3.20;99.90;;;;;;5034547;28;20174;-87
2022/11/14 08:31:21;;;;;;;15.17;10.23;;;3.20;99.90;;;;;;5035456;28;20689;-87
2022/11/14 08:34:05;;;;;;;14.87;11.00;;;3.30;99.90;;;;;;5025070;28;20253;-88
2022/11/14 08:36:50;;;;;;;15.17;11.33;;;3.30;99.90;;;;;;5034523;28;20190;-87
2022/11/14 08:39:35;;;;;;;15.87;10.70;;;3.30;99.90;;;;;;5042124;28;20181;-87
2022/11/14 08:42:20;;;;;;;16.00;10.87;;;3.30;99.90;;;;;;5039121;28;20237;-87
2022/11/14 08:45:05;;;;;;;14.33;10.93;;;3.30;99.90;;;;;;5034139;28;20205;-87
2022/11/14 08:47:51;;;;;;;15.67;11.03;;;3.30;99.90;;;;;;5033914;28;20174;-87
2022/11/14 08:50:35;;;;;;;15.43;10.70;;;3.30;99.90;;;;;;5034164;28;20174;-87
2022/11/14 08:53:20;;;;;;;15.93;10.53;;;3.30;99.90;;;;;;5034389;28;20548;-87
2022/11/14 08:56:05;;;;;;;14.30;10.30;;;3.30;99.90;;;;;;5032175;28;20194;-87
2022/11/14 08:58:50;;;;;;;14.10;10.23;;;3.20;99.90;;;;;;5035191;28;20185;-87
2022/11/14 09:02:01;;;;;;;14.40;10.10;;;3.30;99.90;;;;;;5030422;28;20221;-87
2022/11/14 09:04:45;;;;;;;16.47;11.50;;;3.40;99.90;;;;;;5027784;28;20221;-86
2022/11/14 09:07:30;;;;;;;17.57;11.63;;;3.50;99.90;;;;;;5033259;28;20252;-87
2022/11/14 09:10:15;;;;;;;16.50;11.33;;;3.50;99.90;;;;;;5034893;28;20174;-87
2022/11/14 09:13:01;;;;;;;16.43;11.17;;;3.60;99.90;;;;;;5033905;28;20212;-87
2022/11/14 09:15:45;;;;;;;17.60;12.30;;;3.60;99.90;;;;;;5033722;28;20237;-87
2022/11/14 09:18:30;;;;;;;15.60;11.30;;;3.70;99.90;;;;;;5031094;28;20232;-86
2022/11/14 09:22:10;;;;;;;16.57;11.80;;;3.70;99.90;;;;;;5031390;28;20290;-87
2022/11/14 09:24:55;;;;;;;19.77;11.77;;;3.80;99.90;;;;;;5043622;28;20244;-87
2022/11/14 09:27:39;;;;;;;16.57;12.03;;;3.80;99.90;;;;;;5041910;28;20229;-87
2022/11/14 09:30:24;;;;;;;17.40;12.53;;;3.90;99.90;;;;;;5042739;28;20253;-87
2022/11/14 09:33:09;;;;;;;18.77;13.57;;;4.00;99.90;;;;;;5043345;28;20678;-87
2022/11/14 09:36:02;;;;;;;19.80;14.10;;;4.10;99.90;;;;;;5041379;28;20283;-87
2022/11/14 09:38:46;;;;;;;19.80;14.63;;;4.20;99.90;;;;;;5042444;28;20182;-87
2022/11/14 09:42:09;;;;;;;19.97;14.73;;;4.30;99.90;;;;;;5035806;28;20713;-87
2022/11/14 09:45:01;;;;;;;19.57;13.67;;;4.40;99.90;;;;;;5043444;28;20240;-87
2022/11/14 09:47:52;;;;;;;21.43;14.03;;;4.50;99.90;;;;;;5056300;28;20182;-87
2022/11/14 09:50:44;;;;;;;20.57;13.47;;;4.60;99.90;;;;;;5041934;28;20236;-87
2022/11/14 09:53:36;;;;;;;21.50;14.50;;;4.70;99.90;;;;;;5040226;28;20236;-87
2022/11/14 09:56:25;;;;;;;23.17;15.23;;;4.90;99.90;;;;;;5039832;28;20213;-88
2022/11/14 09:59:11;;;;;;;21.17;14.30;;;5.10;99.90;;;;;;5042488;28;20473;-87
2022/11/14 10:01:58;;;;;;;20.87;14.93;;;5.20;99.90;;;;;;5039144;28;20216;-87
2022/11/14 10:04:58;;;;;;;17.60;12.43;;;5.30;99.90;;;;;;5040455;28;20209;-87
2022/11/14 10:08:12;;;;;;;17.10;11.60;;;5.40;99.90;;;;;;5039725;28;20242;-87
2022/11/14 10:11:12;;;;;;;18.17;11.83;;;5.40;99.90;;;;;;5043018;28;20207;-87
2022/11/14 10:14:05;;;;;;;17.10;11.30;;;5.50;99.90;;;;;;5042191;28;20494;-88
2022/11/14 10:17:23;;;;;;;19.33;12.77;;;5.70;99.90;;;;;;5041266;28;20224;-88
2022/11/14 10:20:25;;;;;;;18.43;13.13;;;5.90;99.90;;;;;;5032522;28;20169;-87
2022/11/14 10:23:31;;;;;;;19.57;13.87;;;6.00;99.90;;;;;;5032271;28;20222;-88
2022/11/14 10:26:33;;;;;;;23.93;16.20;;;6.10;99.90;;;;;;5032945;28;20214;-87
2022/11/14 10:30:02;;;;;;;21.63;14.30;;;6.10;99.90;;;;;;5032473;28;20246;-87
2022/11/14 10:33:08;;;;;;;19.90;13.97;;;6.20;99.90;;;;;;4997463;28;20246;-88
2022/11/14 10:36:16;;;;;;;17.00;12.43;;;6.30;99.90;;;;;;5046518;28;20286;-88
2022/11/14 10:39:06;;;;;;;17.13;12.27;;;6.30;99.90;;;;;;5032085;28;20245;-88
2022/11/14 10:41:55;;;;;;;15.80;9.87;;;6.50;99.90;;;;;;5032059;28;20227;-87
2022/11/14 10:44:52;;;;;;;12.47;9.07;;;6.70;99.90;;;;;;5032501;28;20211;-87
2022/11/14 10:47:47;;;;;;;11.47;8.40;;;6.90;99.90;;;;;;5032021;28;20203;-88
2022/11/14 10:50:52;;;;;;;10.87;7.77;;;7.10;99.90;;;;;;5032325;28;20257;-84
2022/11/14 10:53:43;;;;;;;12.87;9.27;;;7.40;99.90;;;;;;5044230;28;20185;-88
2022/11/14 10:56:27;;;;;;;9.73;6.90;;;7.60;99.90;;;;;;5036858;28;20230;-83
2022/11/14 10:59:12;;;;;;;7.47;6.53;;;7.70;99.90;;;;;;5014098;28;20682;-87
2022/11/14 11:01:57;;;;;;;8.23;6.20;;;8.10;99.90;;;;;;5031698;28;20293;-86
2022/11/14 11:04:44;;;;;;;7.10;4.37;;;8.20;99.90;;;;;;5030897;28;20216;-87
2022/11/14 11:14:16;;;;;;;6.37;3.03;;;8.90;99.90;;;;;;5032793;28;20273;-86
2022/11/14 11:17:19;;;;;;;1.70;1.60;;;9.20;99.90;;;;;;5034655;28;20225;-87
2022/11/14 11:20:40;;;;;;;3.37;1.40;;;9.40;99.90;;;;;;5031631;28;20209;-86
2022/11/14 11:23:26;;;;;;;4.30;2.57;;;9.70;99.90;;;;;;5032578;28;20669;-86
2022/11/14 11:26:38;;;;;;;2.23;1.83;;;9.80;99.90;;;;;;5032690;28;20205;-87
2022/11/14 11:29:22;;;;;;;2.03;1.53;;;9.90;99.90;;;;;;5019537;28;20189;-86
2022/11/14 11:32:08;;;;;;;1.70;1.57;;;9.90;99.90;;;;;;5036895;28;20177;-86
2022/11/14 11:34:54;;;;;;;3.13;1.70;;;10.10;99.90;;;;;;5036742;28;20217;-86
2022/11/14 11:37:53;;;;;;;2.60;1.70;;;10.20;99.90;;;;;;5049904;28;20232;-87
2022/11/14 11:40:47;;;;;;;2.20;1.80;;;10.20;99.90;;;;;;5049938;28;20189;-85
2022/11/14 11:43:44;;;;;;;2.20;1.80;;;10.20;99.90;;;;;;5050198;28;20174;-86
2022/11/14 11:46:41;;;;;;;2.73;2.30;;;10.30;99.90;;;;;;5036744;28;20239;-87
2022/11/14 11:49:44;;;;;;;2.50;2.10;;;10.40;99.90;;;;;;5050239;28;20169;-86
2022/11/14 11:52:49;;;;;;;3.80;2.80;;;10.50;99.90;;;;;;5050104;28;20214;-86
2022/11/14 11:55:40;;;;;;;3.87;2.60;;;10.60;99.90;;;;;;5049494;28;20209;-86
2022/11/14 11:58:40;;;;;;;3.63;2.20;;;10.70;99.90;;;;;;5035859;28;20266;-86
2022/11/14 12:01:24;;;;;;;4.00;2.50;;;10.70;99.90;;;;;;5034730;28;20236;-86
2022/11/14 12:04:09;;;;;;;3.23;1.60;;;10.90;99.90;;;;;;5035603;28;20251;-86
2022/11/14 12:07:06;;;;;;;2.33;1.67;;;11.10;99.90;;;;;;5049302;28;20187;-87
2022/11/14 12:09:52;;;;;;;2.27;1.43;;;11.20;99.90;;;;;;5049362;28;20178;-86
2022/11/14 12:12:43;;;;;;;2.40;2.00;;;11.30;99.90;;;;;;5035039;28;20226;-87
2022/11/14 12:15:45;;;;;;;2.97;2.37;;;11.50;99.90;;;;;;5035631;28;20215;-86
2022/11/14 12:18:47;;;;;;;3.60;2.17;;;11.60;99.90;;;;;;5034203;28;20262;-79
2022/11/14 12:22:00;;;;;;;2.80;2.10;;;11.70;99.90;;;;;;5034842;28;20704;-86
2022/11/14 12:24:53;;;;;;;6.37;3.13;;;11.80;99.90;;;;;;5035950;28;20218;-86
2022/11/14 12:28:05;;;;;;;1.73;1.60;;;12.00;99.90;;;;;;5015223;28;20169;-86
2022/11/14 12:30:56;;;;;;;6.80;2.90;;;12.10;99.90;;;;;;5029290;28;20172;-86
2022/11/14 12:33:55;;;;;;;4.63;2.23;;;12.40;99.90;;;;;;5022427;28;20220;-86
2022/11/14 12:36:41;;;;;;;2.73;1.93;;;12.50;99.90;;;;;;5020138;28;20206;-86
2022/11/14 12:39:29;;;;;;;3.20;1.70;;;12.40;99.90;;;;;;5036259;28;20236;-86
2022/11/14 12:42:19;;;;;;;1.70;1.43;;;12.40;99.90;;;;;;5033744;28;20660;-86
2022/11/14 12:45:35;;;;;;;1.67;1.53;;;12.40;99.90;;;;;;5033861;28;20217;-86
2022/11/14 12:48:33;;;;;;;1.77;1.50;;;12.50;99.90;;;;;;5034069;28;20204;-86
2022/11/14 12:51:25;;;;;;;2.63;2.00;;;12.60;99.90;;;;;;5034148;28;20189;-86
2022/11/14 12:54:45;;;;;;;2.53;1.80;;;12.80;99.90;;;;;;5024770;28;20345;-86
2022/11/14 12:57:48;;;;;;;4.00;2.10;;;12.90;99.90;;;;;;5014085;28;20221;-86
2022/11/14 13:00:37;;;;;;;6.00;2.70;;;13.00;99.90;;;;;;5015503;28;20190;-86
2022/11/14 13:03:46;;;;;;;5.07;2.53;;;13.10;99.90;;;;;;5014928;28;20170;-86
2022/11/14 13:06:31;;;;;;;5.03;3.20;;;13.40;99.90;;;;;;5014241;28;20202;-86
2022/11/14 13:09:24;;;;;;;4.90;2.67;;;13.50;99.90;;;;;;5014300;28;20270;-86
2022/11/14 13:22:15;;;;;;;3.43;2.73;;;13.90;99.90;;;;;;5034137;28;20305;-86
2022/11/14 13:25:00;;;;;;;4.17;3.37;;;14.00;99.90;;;;;;5016616;28;20234;-86
2022/11/14 13:27:45;;;;;;;4.10;2.43;;;14.00;99.90;;;;;;5020078;28;20203;-86
2022/11/14 13:31:05;;;;;;;5.40;2.43;;;14.10;99.90;;;;;;5027566;28;20190;-86
2022/11/14 13:33:52;;;;;;;5.10;3.33;;;14.00;99.90;;;;;;5021222;28;20210;-85
2022/11/14 13:36:44;;;;;;;8.63;3.37;;;14.00;99.90;;;;;;5013349;28;20175;-86
2022/11/14 13:39:41;;;;;;;3.80;2.30;;;14.00;99.90;;;;;;5013611;28;20229;-86
2022/11/14 13:42:44;;;;;;;5.37;3.10;;;14.00;99.90;;;;;;5013364;28;20298;-86
2022/11/14 13:45:37;;;;;;;6.27;2.77;;;14.10;99.90;;;;;;5013079;28;20226;-85
2022/11/14 13:49:04;;;;;;;3.73;2.90;;;14.00;99.90;;;;;;5025492;28;20240;-86
2022/11/14 13:51:52;;;;;;;7.03;2.93;;;14.00;99.90;;;;;;5019004;28;20186;-86
2022/11/14 13:54:44;;;;;;;4.87;3.30;;;13.80;99.90;;;;;;5037110;28;20214;-86
2022/11/14 13:57:50;;;;;;;3.73;3.30;;;13.60;99.90;;;;;;5030758;28;20191;-86
2022/11/14 14:01:03;;;;;;;8.17;4.57;;;13.40;99.90;;;;;;5031836;28;20674;-86
2022/11/14 14:04:02;;;;;;;8.60;5.40;;;13.20;99.90;;;;;;5032729;28;20174;-86
2022/11/14 14:07:11;;;;;;;3.93;2.10;;;13.20;99.90;;;;;;5023344;28;20195;-86
2022/11/14 14:10:02;;;;;;;2.73;2.17;;;13.10;99.90;;;;;;5018245;28;20181;-86
2022/11/14 14:13:15;;;;;;;3.17;2.27;;;13.00;99.90;;;;;;5025266;28;20209;-86
2022/11/14 14:16:43;;;;;;;3.43;2.30;;;12.90;99.90;;;;;;5027784;28;20208;-86
2022/11/14 14:19:58;;;;;;;3.47;2.63;;;12.90;99.90;;;;;;5012897;28;20201;-86
2022/11/14 14:23:07;;;;;;;4.80;3.33;;;12.90;99.90;;;;;;5039580;28;20205;-86
2022/11/14 14:26:25;;;;;;;4.10;2.37;;;12.90;99.90;;;;;;5013589;28;20237;-86
2022/11/14 14:29:25;;;;;;;4.07;2.50;;;12.80;99.90;;;;;;5047864;28;20173;-86
2022/11/14 14:32:14;;;;;;;5.30;2.23;;;12.80;99.90;;;;;;5013780;28;20183;-87
2022/11/14 14:34:59;;;;;;;4.23;2.43;;;12.80;99.90;;;;;;5037739;28;20305;-87
2022/11/14 14:37:55;;;;;;;5.00;3.07;;;12.70;99.90;;;;;;5032310;28;20177;-87
2022/11/14 14:40:41;;;;;;;8.20;4.13;;;12.70;99.90;;;;;;5046224;28;20194;-87
2022/11/14 14:43:33;;;;;;;6.90;4.57;;;12.60;99.90;;;;;;5046446;28;20173;-85
2022/11/14 14:46:31;;;;;;;4.70;3.20;;;12.50;99.90;;;;;;5031978;28;20173;-85
2022/11/14 14:49:33;;;;;;;7.47;4.20;;;12.40;99.90;;;;;;5032018;28;20225;-84
2022/11/14 14:52:20;;;;;;;6.70;4.07;;;12.30;99.90;;;;;;5031741;28;20195;-84
2022/11/14 14:55:07;;;;;;;6.77;4.07;;;12.30;99.90;;;;;;5031972;28;20288;-84
2022/11/14 14:57:54;;;;;;;10.00;5.03;;;12.30;99.90;;;;;;5031324;28;20261;-85
2022/11/14 15:01:00;;;;;;;6.90;3.83;;;12.30;99.90;;;;;;5037083;28;20188;-85